Maldives Meteorological Service

SYNOP

Station Code SYNOP
43555
AAXX 29004 43555 12475 72506 10283 20252 30095 40097 60002 84202 333 59002 70000 84818 87077=
43533
AAXX 29004 43533 12470 42705 10274 20248 30093 40095 60002 82202 333 59007 70000 82818 84077=
43577
AAXX 29004 43577 11459 79901 10268 20243 30098 40100 60012 78022 84232 333 59001 70001 83818 87077=
43588
AAXX 29004 43588 12465 79901 10256 20248 30096 40097 60002 82238 333 59001 70000 82818 87276=
43599
AAXX 29004 43599 12460 72005 10276 20244 30096 40098 60002 82232 333 59002 79999 82818 86076=
Last Updated : 2020-09-29 05:00:03